createdAt,value
2019-02-20T02:33:44.994Z,2.30
2019-02-20T02:38:49.989Z,2.10
2019-02-20T02:43:54.885Z,2.10
2019-02-20T02:49:00.043Z,2.10
2019-02-20T02:54:08.921Z,2.10
2019-02-20T02:59:13.403Z,2.00
2019-02-20T03:04:20.985Z,2.00
2019-02-20T03:09:25.539Z,2.10
2019-02-20T03:14:33.451Z,2.10
2019-02-20T03:19:39.368Z,2.10
2019-02-20T03:24:44.142Z,2.10
2019-02-20T03:29:49.010Z,2.00
2019-02-20T03:34:53.815Z,2.00
2019-02-20T03:39:58.450Z,2.00
2019-02-20T03:45:03.367Z,1.90
2019-02-20T03:50:17.572Z,1.90
2019-02-20T03:55:24.891Z,1.90
2019-02-20T04:00:30.939Z,1.90
2019-02-20T04:05:44.570Z,1.90
2019-02-20T04:10:49.505Z,1.80
2019-02-20T04:15:54.264Z,1.90
2019-02-20T04:20:58.942Z,1.90
2019-02-20T04:26:04.290Z,1.90
2019-02-20T04:31:14.772Z,1.80
2019-02-20T04:36:19.560Z,1.80
2019-02-20T04:41:24.558Z,1.80
2019-02-20T04:46:29.005Z,1.80
2019-02-20T04:51:33.514Z,1.80
2019-02-20T04:56:38.196Z,1.80
2019-02-20T05:01:42.799Z,1.80
2019-02-20T05:06:47.437Z,1.90
2019-02-20T05:11:54.426Z,1.90
2019-02-20T05:16:59.528Z,1.90
2019-02-20T05:22:06.708Z,1.90
2019-02-20T05:27:11.562Z,2.00
2019-02-20T05:32:16.837Z,2.00
2019-02-20T05:37:21.989Z,2.00
2019-02-20T05:42:27.338Z,2.10
2019-02-20T05:47:35.129Z,2.10
2019-02-20T05:52:39.979Z,2.10
2019-02-20T05:57:47.858Z,2.10
2019-02-20T06:02:52.554Z,2.10
2019-02-20T06:07:57.111Z,2.00
2019-02-20T06:13:01.496Z,1.80
2019-02-20T06:18:05.812Z,1.80
2019-02-20T06:23:13.692Z,1.80
2019-02-20T06:28:18.208Z,1.80
2019-02-20T06:33:25.662Z,1.80
2019-02-20T06:38:30.768Z,1.80
2019-02-20T06:43:35.089Z,1.70
2019-02-20T06:48:39.504Z,1.80
2019-02-20T06:53:43.834Z,1.70
2019-02-20T06:58:48.231Z,1.70
2019-02-20T07:03:52.704Z,2.00
2019-02-20T07:09:47.140Z,2.10
2019-02-20T07:15:50.527Z,2.30
2019-02-20T07:21:12.674Z,2.20
2019-02-20T07:26:53.779Z,2.40
2019-02-20T07:31:59.967Z,2.70
2019-02-20T07:37:04.467Z,2.90
2019-02-20T07:42:09.701Z,3.00
2019-02-20T07:47:14.262Z,3.20
2019-02-20T07:52:19.504Z,3.30
2019-02-20T07:57:30.045Z,3.50
2019-02-20T08:02:35.381Z,3.80
2019-02-20T08:07:40.656Z,3.90
2019-02-20T08:12:45.059Z,4.00
2019-02-20T08:17:50.838Z,4.10
2019-02-20T08:22:55.475Z,4.40
2019-02-20T14:33:19.812Z,16.40
2019-02-20T14:38:24.797Z,15.60
2019-02-20T14:43:30.057Z,15.30
2019-02-20T14:48:36.549Z,15.00
2019-02-20T14:53:41.221Z,14.50
2019-02-20T14:58:46.125Z,14.30
2019-02-20T15:03:59.419Z,14.10
2019-02-20T15:09:05.964Z,14.00
2019-02-20T15:14:13.849Z,14.00
2019-02-20T15:19:29.476Z,13.40
2019-02-20T15:24:34.377Z,13.40
2019-02-20T15:29:40.041Z,13.80
2019-02-20T15:34:54.300Z,13.90
2019-02-20T15:40:00.940Z,13.40
2019-02-20T15:45:09.912Z,13.20
2019-02-20T15:50:15.000Z,13.40
2019-02-20T15:55:19.956Z,13.40
2019-02-20T16:00:29.373Z,13.40
2019-02-20T16:05:34.268Z,13.40
2019-02-20T16:10:43.685Z,13.40
2019-02-20T16:16:18.910Z,13.30
2019-02-20T16:21:29.588Z,13.20
2019-02-20T16:26:34.260Z,13.10
2019-02-20T16:31:44.859Z,13.00
2019-02-20T16:36:58.099Z,13.00
2019-02-20T16:42:01.133Z,12.90
2019-02-20T16:47:05.786Z,12.90
2019-02-20T16:52:11.497Z,12.70
2019-02-20T16:57:16.323Z,12.60
2019-02-20T17:02:21.255Z,12.30
2019-02-20T17:07:26.090Z,12.10
2019-02-20T17:12:34.301Z,11.60
2019-02-20T17:17:39.222Z,11.20
2019-02-20T17:22:44.354Z,10.90
2019-02-20T17:27:54.824Z,10.50
2019-02-20T17:32:59.802Z,10.30
2019-02-20T17:38:04.576Z,10.10
2019-02-20T17:43:09.303Z,9.80
2019-02-20T17:48:13.821Z,9.70
2019-02-20T17:53:18.464Z,9.50
2019-02-20T17:58:32.335Z,9.40
2019-02-20T18:03:54.551Z,9.40
2019-02-20T18:08:59.190Z,9.30
2019-02-20T18:14:10.334Z,9.00
2019-02-20T18:19:52.626Z,8.90
2019-02-20T18:25:00.552Z,8.80
2019-02-20T18:30:05.734Z,8.70
2019-02-20T18:35:12.017Z,8.50
2019-02-20T18:40:18.803Z,8.50
2019-02-20T18:45:24.281Z,8.50
2019-02-20T18:50:29.405Z,8.30
2019-02-20T18:55:34.485Z,8.20
2019-02-20T19:00:39.085Z,8.10
2019-02-20T19:05:43.789Z,7.90
2019-02-20T19:10:50.901Z,7.80
2019-02-20T19:16:28.973Z,7.60
2019-02-20T19:22:31.956Z,7.60
2019-02-20T19:27:52.049Z,7.50
2019-02-20T19:33:04.162Z,7.50
2019-02-20T19:38:33.987Z,7.40
2019-02-20T19:43:50.846Z,7.40
2019-02-20T19:49:25.856Z,7.30
2019-02-20T19:54:55.540Z,7.20
2019-02-20T20:00:33.159Z,7.10
2019-02-20T20:06:09.377Z,6.80
2019-02-20T20:11:45.130Z,6.80
2019-02-20T20:17:26.545Z,6.60
2019-02-20T20:23:22.543Z,6.60
2019-02-20T20:29:19.812Z,6.50
2019-02-20T20:35:20.825Z,6.40
2019-02-20T20:41:15.755Z,6.30
2019-02-20T20:47:21.644Z,6.10
2019-02-20T20:53:03.564Z,6.10
2019-02-20T20:59:17.893Z,6.00
2019-02-20T21:05:43.437Z,5.90
2019-02-20T21:11:47.420Z,5.90
2019-02-20T21:17:13.146Z,5.80
2019-02-20T21:23:11.399Z,5.80
2019-02-20T21:28:43.473Z,5.70
2019-02-20T21:34:30.249Z,5.70
2019-02-20T21:40:00.488Z,5.70
2019-02-20T21:45:49.114Z,5.60
2019-02-20T21:51:17.443Z,5.50
2019-02-20T21:57:12.484Z,5.50
2019-02-20T22:02:29.254Z,5.40
2019-02-20T22:08:33.410Z,5.50
2019-02-20T22:14:26.543Z,5.30
2019-02-20T22:20:22.911Z,5.30
2019-02-20T22:25:58.935Z,5.30
2019-02-20T22:31:38.315Z,5.30
2019-02-20T22:38:00.932Z,5.20
2019-02-20T22:43:53.991Z,5.20
2019-02-20T22:49:53.426Z,5.10
2019-02-20T22:55:52.303Z,5.00
2019-02-20T23:01:36.038Z,5.00
2019-02-20T23:07:14.499Z,5.00
2019-02-20T23:23:41.312Z,4.90
2019-02-20T23:29:06.746Z,4.90
2019-02-20T23:34:11.827Z,4.90
2019-02-20T23:39:16.751Z,5.00
2019-02-20T23:44:24.070Z,5.00
2019-02-20T23:49:33.019Z,4.90
